Time;durP1;ratioP1;P1;durP2;ratioP2;P2;SDS_P1;SDS_P2;PMS_P1;PMS_P2;Temp;Humidity;BMP_temperature;BMP_pressure;BME280_temperature;BME280_humidity;BME280_pressure;Samples;Min_cycle;Max_cycle;Signal;HPM_P1;HPM_P2
2023/12/14 00:00:29;;;;;;;88.85;32.00;;;8.40;99.90;;;;;;4996812;28;20080;-56
2023/12/14 00:02:55;;;;;;;88.07;33.25;;;8.20;99.90;;;;;;4990810;28;20589;-57
2023/12/14 00:05:20;;;;;;;82.70;31.50;;;;;;;;;;4994350;28;20050;-57
2023/12/14 00:07:46;;;;;;;80.07;30.58;;;8.10;99.90;;;;;;4989213;28;20074;-57
2023/12/14 00:10:12;;;;;;;79.82;30.70;;;8.20;99.90;;;;;;4983811;28;20037;-57
2023/12/14 00:12:38;;;;;;;71.07;28.02;;;8.30;99.90;;;;;;4997163;28;20041;-56
2023/12/14 00:15:06;;;;;;;62.03;25.48;;;7.90;99.90;;;;;;4977820;28;20117;-57
2023/12/14 00:17:32;;;;;;;54.67;22.75;;;;;;;;;;4996804;28;20140;-56
2023/12/14 00:19:57;;;;;;;53.25;23.60;;;8.10;99.90;;;;;;4993246;28;20034;-56
2023/12/14 00:22:24;;;;;;;50.92;22.45;;;8.10;99.90;;;;;;5003672;28;20042;-58
2023/12/14 00:24:49;;;;;;;49.88;22.13;;;8.20;99.90;;;;;;4996201;28;20085;-56
2023/12/14 00:27:15;;;;;;;42.88;18.25;;;;;;;;;;4997474;28;20129;-58
2023/12/14 00:29:41;;;;;;;39.00;18.80;;;8.00;99.90;;;;;;4993317;28;20219;-58
2023/12/14 00:32:07;;;;;;;41.55;18.48;;;;;;;;;;4994954;28;20037;-60
2023/12/14 00:34:33;;;;;;;40.30;18.80;;;;;;;;;;4981126;28;20229;-59
2023/12/14 00:36:58;;;;;;;39.38;19.05;;;8.10;99.90;;;;;;4996298;28;20343;-59
2023/12/14 00:39:24;;;;;;;41.80;20.15;;;8.10;99.90;;;;;;4996007;28;20412;-58
2023/12/14 00:41:52;;;;;;;37.20;18.30;;;;;;;;;;5000560;28;20128;-57
2023/12/14 00:44:18;;;;;;;42.88;19.75;;;7.70;99.90;;;;;;4999212;28;20040;-58
2023/12/14 00:46:43;;;;;;;43.58;20.33;;;7.90;99.90;;;;;;5003186;28;20239;-59
2023/12/14 00:49:09;;;;;;;39.15;18.65;;;7.90;99.90;;;;;;4995609;28;20073;-58
2023/12/14 00:51:34;;;;;;;48.95;22.00;;;7.90;99.90;;;;;;4999678;28;20042;-57
2023/12/14 00:54:00;;;;;;;43.60;19.88;;;8.00;99.90;;;;;;5002648;28;20107;-56
2023/12/14 00:56:25;;;;;;;42.22;19.17;;;7.60;99.90;;;;;;4991184;28;20548;-57
2023/12/14 00:58:51;;;;;;;38.13;18.00;;;8.00;99.90;;;;;;4997643;28;20049;-58
2023/12/14 01:01:17;;;;;;;36.33;17.70;;;;;;;;;;5000222;28;20037;-56
2023/12/14 01:03:43;;;;;;;0.00;0.00;;;;;;;;;;4995251;28;20050;-58
2023/12/14 01:06:09;;;;;;;0.17;0.08;;;;;;;;;;4993318;28;20052;-57
2023/12/14 01:08:35;;;;;;;41.75;20.20;;;;;;;;;;4996172;28;20117;-57
2023/12/14 01:11:01;;;;;;;41.17;19.73;;;;;;;;;;4993404;28;20354;-57
2023/12/14 01:13:27;;;;;;;43.58;20.15;;;;;;;;;;4988261;28;20048;-57
2023/12/14 01:15:53;;;;;;;46.20;21.27;;;;;;;;;;4991569;28;20038;-57
2023/12/14 01:18:19;;;;;;;50.05;23.20;;;;;;;;;;4993850;28;20073;-55
2023/12/14 01:20:45;;;;;;;53.13;23.15;;;;;;;;;;4991087;28;20124;-58
2023/12/14 01:23:11;;;;;;;53.38;24.60;;;;;;;;;;4996471;28;20042;-57
2023/12/14 01:25:37;;;;;;;62.03;26.67;;;;;;;;;;4991932;28;20575;-57
2023/12/14 01:28:03;;;;;;;60.45;25.52;;;7.90;99.90;;;;;;5002093;28;20042;-57
2023/12/14 01:30:29;;;;;;;58.67;26.85;;;;;;;;;;4999525;28;20045;-56
2023/12/14 01:32:54;;;;;;;66.68;27.90;;;7.90;99.90;;;;;;4998600;28;20073;-59
2023/12/14 01:35:20;;;;;;;79.00;28.95;;;7.80;99.90;;;;;;4986706;28;20048;-59
2023/12/14 01:37:46;;;;;;;67.05;29.25;;;;;;;;;;5000487;28;20068;-58
2023/12/14 01:40:12;;;;;;;80.20;32.05;;;;;;;;;;4996627;28;20398;-58
2023/12/14 01:42:38;;;;;;;81.05;32.40;;;;;;;;;;5000010;28;20040;-55
2023/12/14 01:45:05;;;;;;;73.03;30.08;;;;;;;;;;5000460;28;20030;-55
2023/12/14 01:47:31;;;;;;;78.82;32.35;;;;;;;;;;4997732;28;20040;-56
2023/12/14 01:49:56;;;;;;;75.10;29.77;;;;;;;;;;4997933;28;20490;-56
2023/12/14 01:52:22;;;;;;;71.55;31.55;;;;;;;;;;4995387;28;20441;-59
2023/12/14 01:54:48;;;;;;;0.00;0.00;;;;;;;;;;4998723;28;20655;-59
2023/12/14 01:57:14;;;;;;;0.00;0.00;;;7.50;99.90;;;;;;4995438;28;20062;-59
2023/12/14 01:59:42;;;;;;;65.80;25.20;;;;;;;;;;4996879;28;20040;-58
2023/12/14 02:02:10;;;;;;;116.57;43.42;;;;;;;;;;4986804;28;20467;-56
2023/12/14 02:04:37;;;;;;;107.10;37.55;;;7.40;99.90;;;;;;4994146;28;20056;-59
2023/12/14 02:07:03;;;;;;;98.13;36.88;;;7.10;99.90;;;;;;4990842;28;20050;-58
2023/12/14 02:09:28;;;;;;;87.20;32.97;;;7.10;99.90;;;;;;4996067;28;20045;-57
2023/12/14 02:11:54;;;;;;;82.35;33.20;;;7.00;99.90;;;;;;4995877;28;20046;-58
2023/12/14 02:14:22;;;;;;;87.10;34.60;;;7.10;99.90;;;;;;4995640;28;20041;-58
2023/12/14 02:16:47;;;;;;;82.40;33.35;;;7.10;99.90;;;;;;5000175;28;20038;-59
2023/12/14 02:19:13;;;;;;;86.97;32.95;;;7.10;99.90;;;;;;4999669;28;20045;-59
2023/12/14 02:21:39;;;;;;;83.28;33.58;;;;;;;;;;4999858;28;20042;-59
2023/12/14 02:24:05;;;;;;;83.72;34.42;;;7.10;99.90;;;;;;4997326;28;20127;-59
2023/12/14 02:26:31;;;;;;;85.35;34.38;;;7.10;99.90;;;;;;4990517;28;20124;-59
2023/12/14 02:28:56;;;;;;;78.63;31.27;;;7.30;99.90;;;;;;4998343;28;20052;-59
2023/12/14 02:31:23;;;;;;;91.18;34.92;;;7.10;99.90;;;;;;4994829;28;20457;-57
2023/12/14 02:33:50;;;;;;;94.05;34.28;;;6.80;99.90;;;;;;4997379;28;20030;-58
2023/12/14 02:36:18;;;;;;;98.22;36.22;;;7.00;99.90;;;;;;4994399;28;20038;-59
2023/12/14 02:38:45;;;;;;;93.80;36.75;;;;;;;;;;4998495;28;20038;-58
2023/12/14 02:41:14;;;;;;;92.60;33.83;;;;;;;;;;4998408;28;20446;-59
2023/12/14 02:43:40;;;;;;;98.97;36.45;;;6.90;99.90;;;;;;4997637;28;20539;-59
2023/12/14 02:46:08;;;;;;;90.72;34.22;;;;;;;;;;4995763;28;20397;-59
2023/12/14 02:48:34;;;;;;;101.00;38.83;;;;;;;;;;4997899;28;20114;-58
2023/12/14 02:51:00;;;;;;;87.05;35.85;;;;;;;;;;4999011;28;20034;-58
2023/12/14 02:53:26;;;;;;;73.20;31.27;;;;;;;;;;4983233;28;20057;-57
2023/12/14 02:55:52;;;;;;;78.63;33.80;;;;;;;;;;4995576;28;20545;-58
2023/12/14 02:58:19;;;;;;;73.47;30.85;;;;;;;;;;4999612;28;20056;-57
2023/12/14 03:00:45;;;;;;;67.47;27.98;;;;;;;;;;5001702;28;20046;-57
2023/12/14 03:03:11;;;;;;;64.80;28.13;;;;;;;;;;4999502;28;20168;-59
2023/12/14 03:05:37;;;;;;;64.68;28.35;;;;;;;;;;5002299;28;20223;-58
2023/12/14 03:08:03;;;;;;;68.35;30.10;;;;;;;;;;4995336;28;20026;-58
2023/12/14 03:10:29;;;;;;;66.18;28.55;;;;;;;;;;4998136;28;20033;-58
2023/12/14 03:12:55;;;;;;;69.53;30.67;;;;;;;;;;4996915;28;20117;-58
2023/12/14 03:15:22;;;;;;;77.88;32.83;;;;;;;;;;4997749;28;20030;-58
2023/12/14 03:17:48;;;;;;;82.75;32.47;;;;;;;;;;4999232;28;20045;-58
2023/12/14 03:20:14;;;;;;;76.75;32.03;;;;;;;;;;4981195;28;20429;-57
2023/12/14 03:22:40;;;;;;;78.22;30.92;;;;;;;;;;4999515;28;20077;-57
2023/12/14 03:25:07;;;;;;;73.22;31.65;;;;;;;;;;4997096;28;20030;-56
2023/12/14 03:27:32;;;;;;;78.53;31.52;;;;;;;;;;4981461;28;20119;-56
2023/12/14 03:29:58;;;;;;;76.45;31.90;;;;;;;;;;4997750;28;20045;-57
2023/12/14 03:32:24;;;;;;;76.72;32.17;;;;;;;;;;4996983;28;20041;-55
2023/12/14 03:34:50;;;;;;;82.53;34.42;;;;;;;;;;4997110;28;20038;-57
2023/12/14 03:37:16;;;;;;;82.35;33.15;;;;;;;;;;4998664;28;20041;-57
2023/12/14 03:39:42;;;;;;;84.65;31.65;;;;;;;;;;4995235;28;20038;-57
2023/12/14 03:42:08;;;;;;;77.05;31.50;;;;;;;;;;5002908;28;20041;-57
2023/12/14 03:44:34;;;;;;;75.82;31.38;;;;;;;;;;4992545;28;20041;-56
2023/12/14 03:47:00;;;;;;;79.57;32.75;;;;;;;;;;4995367;28;20045;-55
2023/12/14 03:49:26;;;;;;;77.40;31.55;;;;;;;;;;4997505;28;20038;-55
2023/12/14 03:51:52;;;;;;;90.50;35.03;;;;;;;;;;4998902;28;20150;-56
2023/12/14 03:54:18;;;;;;;89.88;32.25;;;;;;;;;;4989955;28;20453;-57
2023/12/14 03:56:44;;;;;;;89.32;34.90;;;;;;;;;;4999721;28;20042;-57
2023/12/14 03:59:10;;;;;;;88.32;33.72;;;;;;;;;;4998558;28;21065;-57
2023/12/14 04:01:39;;;;;;;97.22;34.40;;;;;;;;;;5000590;28;20073;-56
2023/12/14 04:04:05;;;;;;;95.03;34.25;;;;;;;;;;4993673;28;20038;-57
2023/12/14 04:06:31;;;;;;;84.50;30.45;;;;;;;;;;4998392;28;20046;-56
2023/12/14 04:08:57;;;;;;;91.68;32.10;;;;;;;;;;4998247;28;20042;-58
2023/12/14 04:11:23;;;;;;;89.75;32.95;;;;;;;;;;4996776;28;20104;-57
2023/12/14 04:13:53;;;;;;;101.45;36.40;;;;;;;;;;4990773;28;20069;-56
2023/12/14 04:16:22;;;;;;;92.50;32.45;;;;;;;;;;4998191;28;20539;-57
2023/12/14 04:18:49;;;;;;;93.93;33.58;;;;;;;;;;4997772;28;20044;-57
2023/12/14 04:21:14;;;;;;;95.32;33.38;;;;;;;;;;5000298;28;20033;-57
2023/12/14 04:23:41;;;;;;;95.22;35.67;;;;;;;;;;5000323;28;20042;-56
2023/12/14 04:26:08;;;;;;;100.78;35.17;;;;;;;;;;4996662;28;20416;-54
2023/12/14 04:28:34;;;;;;;92.90;30.90;;;;;;;;;;5000431;28;20064;-57
2023/12/14 04:31:00;;;;;;;0.00;0.00;;;;;;;;;;5000250;28;20487;-56
2023/12/14 04:33:26;;;;;;;95.25;34.20;;;;;;;;;;4999850;28;20033;-56
2023/12/14 04:35:52;;;;;;;98.47;36.03;;;;;;;;;;4995742;28;20034;-57
2023/12/14 04:38:18;;;;;;;97.05;34.20;;;;;;;;;;4994399;28;20027;-56
2023/12/14 04:40:44;;;;;;;87.93;33.78;;;;;;;;;;4992338;28;20046;-57
2023/12/14 04:43:10;;;;;;;95.55;34.75;;;;;;;;;;5000009;28;20125;-57
2023/12/14 04:45:36;;;;;;;86.40;32.65;;;;;;;;;;4996492;28;20046;-54
2023/12/14 04:48:02;;;;;;;99.03;33.38;;;;;;;;;;5000968;28;20030;-56
2023/12/14 04:50:28;;;;;;;104.32;35.30;;;;;;;;;;5002540;28;20155;-57
2023/12/14 04:52:54;;;;;;;102.55;36.95;;;;;;;;;;4998540;28;20038;-56
2023/12/14 04:55:20;;;;;;;102.07;35.65;;;;;;;;;;4998580;28;20132;-57
2023/12/14 04:57:48;;;;;;;100.80;35.85;;;;;;;;;;4993726;28;20128;-57
2023/12/14 05:00:14;;;;;;;100.68;36.05;;;;;;;;;;4996208;28;20034;-57
2023/12/14 05:02:40;;;;;;;94.43;34.53;;;;;;;;;;5002239;28;20045;-56
2023/12/14 05:05:06;;;;;;;97.82;33.90;;;;;;;;;;4995231;28;20026;-56
2023/12/14 05:07:32;;;;;;;91.55;33.60;;;;;;;;;;5001151;28;20046;-55
2023/12/14 05:09:58;;;;;;;91.88;31.58;;;;;;;;;;4996367;28;20095;-57
2023/12/14 05:12:26;;;;;;;93.72;34.40;;;;;;;;;;4997710;28;20053;-58
2023/12/14 05:14:53;;;;;;;93.20;34.05;;;;;;;;;;4996184;28;20026;-57
2023/12/14 05:17:19;;;;;;;95.95;35.08;;;;;;;;;;4999372;28;20398;-56
2023/12/14 05:19:45;;;;;;;86.50;31.52;;;;;;;;;;5003360;28;20033;-57
2023/12/14 05:22:12;;;;;;;87.55;32.10;;;;;;;;;;4996316;28;20100;-58
2023/12/14 05:24:38;;;;;;;82.00;31.52;;;;;;;;;;4996016;28;20046;-58
2023/12/14 05:27:04;;;;;;;80.53;30.55;;;;;;;;;;5001936;28;20447;-58
2023/12/14 05:29:31;;;;;;;82.20;29.75;;;;;;;;;;5000010;28;20104;-58
2023/12/14 05:31:57;;;;;;;87.20;32.85;;;;;;;;;;4997091;28;20037;-58
2023/12/14 05:34:23;;;;;;;85.53;31.83;;;;;;;;;;4999736;28;20034;-57
2023/12/14 05:36:49;;;;;;;83.35;30.65;;;;;;;;;;5000512;28;20320;-58
2023/12/14 05:39:15;;;;;;;88.88;32.08;;;;;;;;;;4999925;28;20045;-58
2023/12/14 05:41:41;;;;;;;83.30;31.95;;;;;;;;;;4987506;28;20049;-56
2023/12/14 05:44:07;;;;;;;85.05;33.17;;;;;;;;;;4998107;28;20529;-59
2023/12/14 05:46:33;;;;;;;83.18;31.75;;;;;;;;;;4999821;28;20096;-57
2023/12/14 05:48:59;;;;;;;84.78;30.45;;;;;;;;;;4995461;28;20045;-58
2023/12/14 05:51:32;;;;;;;81.57;31.45;;;;;;;;;;4998223;28;20041;-58
2023/12/14 05:53:59;;;;;;;83.55;32.42;;;;;;;;;;5003541;28;20030;-58
2023/12/14 05:56:25;;;;;;;83.25;31.95;;;;;;;;;;5000405;28;20034;-57
2023/12/14 05:58:51;;;;;;;82.32;31.08;;;;;;;;;;4999116;28;20034;-58
2023/12/14 06:01:18;;;;;;;87.15;32.22;;;;;;;;;;5000260;28;20034;-57
2023/12/14 06:03:44;;;;;;;82.07;30.73;;;;;;;;;;4997160;28;20038;-57
2023/12/14 06:06:11;;;;;;;74.13;28.63;;;;;;;;;;4997940;28;20030;-57
2023/12/14 06:08:37;;;;;;;77.28;28.33;;;;;;;;;;4988602;28;20049;-58
2023/12/14 06:11:05;;;;;;;71.78;29.00;;;;;;;;;;4995626;28;20034;-57
2023/12/14 06:13:31;;;;;;;71.43;29.08;;;;;;;;;;5001988;28;20410;-58
2023/12/14 06:15:57;;;;;;;70.88;27.17;;;;;;;;;;5001348;28;20042;-56
2023/12/14 06:18:23;;;;;;;71.63;28.48;;;;;;;;;;5000164;28;20495;-57
2023/12/14 06:20:49;;;;;;;80.13;30.35;;;;;;;;;;5001052;28;20041;-57
2023/12/14 06:23:15;;;;;;;76.60;30.40;;;;;;;;;;4999334;28;20049;-56
2023/12/14 06:25:41;;;;;;;80.93;30.48;;;;;;;;;;4998114;28;20065;-56
2023/12/14 06:28:07;;;;;;;78.80;30.35;;;;;;;;;;4992531;28;20033;-57
2023/12/14 06:30:34;;;;;;;81.22;30.02;;;;;;;;;;4995448;28;20046;-57
2023/12/14 06:33:00;;;;;;;80.95;29.00;;;;;;;;;;5000173;28;20049;-57
2023/12/14 06:35:26;;;;;;;85.88;29.23;;;;;;;;;;4999343;28;20034;-58
2023/12/14 06:37:52;;;;;;;80.88;31.02;;;;;;;;;;4997237;28;20342;-58
2023/12/14 06:40:19;;;;;;;85.15;32.50;;;;;;;;;;4998401;28;20148;-58
2023/12/14 06:42:45;;;;;;;80.57;29.50;;;;;;;;;;5000455;28;20048;-57
2023/12/14 06:45:11;;;;;;;85.25;32.58;;;;;;;;;;4996736;28;20469;-58
2023/12/14 06:47:37;;;;;;;84.28;30.80;;;;;;;;;;4999723;28;20058;-58
2023/12/14 06:50:03;;;;;;;85.55;32.42;;;;;;;;;;4981906;28;20588;-58
2023/12/14 06:52:30;;;;;;;88.13;33.00;;;;;;;;;;4999460;28;20049;-59
2023/12/14 06:54:56;;;;;;;87.40;31.48;;;;;;;;;;4996066;28;20037;-58
2023/12/14 06:57:22;;;;;;;86.95;30.45;;;;;;;;;;4997493;28;20771;-58
2023/12/14 06:59:48;;;;;;;85.68;31.45;;;;;;;;;;4997330;28;20034;-57
2023/12/14 07:02:14;;;;;;;80.97;26.70;;;;;;;;;;4997544;28;20421;-58
2023/12/14 07:04:40;;;;;;;95.63;35.97;;;;;;;;;;4999069;28;20141;-57
2023/12/14 07:07:06;;;;;;;109.80;38.95;;;;;;;;;;4992825;28;20049;-57
2023/12/14 07:09:32;;;;;;;114.47;38.95;;;;;;;;;;4999712;28;20034;-59
2023/12/14 07:12:01;;;;;;;111.15;36.95;;;;;;;;;;4992554;28;20053;-59
2023/12/14 07:14:27;;;;;;;104.07;36.58;;;;;;;;;;4982498;28;20473;-57
2023/12/14 07:16:53;;;;;;;110.50;37.78;;;;;;;;;;5000049;28;20048;-57
2023/12/14 07:19:19;;;;;;;95.93;35.55;;;;;;;;;;4999894;28;20579;-58
2023/12/14 07:21:44;;;;;;;99.88;36.30;;;;;;;;;;4997442;28;20062;-58
2023/12/14 07:24:10;;;;;;;92.07;34.90;;;;;;;;;;4996921;28;20455;-57
2023/12/14 07:26:36;;;;;;;87.72;34.53;;;;;;;;;;5001394;28;20362;-58
2023/12/14 07:29:02;;;;;;;97.63;35.10;;;;;;;;;;4994473;28;20100;-58
2023/12/14 07:31:29;;;;;;;87.47;33.70;;;;;;;;;;5000841;28;20041;-57
2023/12/14 07:33:55;;;;;;;77.32;30.77;;;;;;;;;;5000309;28;20466;-58
2023/12/14 07:36:22;;;;;;;70.50;26.77;;;;;;;;;;4996590;28;20057;-57
2023/12/14 07:38:48;;;;;;;70.35;28.70;;;;;;;;;;4998574;28;20109;-57
2023/12/14 07:41:14;;;;;;;72.95;31.65;;;;;;;;;;4997188;28;20050;-56
2023/12/14 07:43:40;;;;;;;74.95;31.23;;;;;;;;;;4998880;28;20041;-58
2023/12/14 07:46:06;;;;;;;71.47;30.67;;;;;;;;;;4999651;28;20473;-58
2023/12/14 07:48:32;;;;;;;77.68;33.03;;;;;;;;;;5001794;28;20041;-58
2023/12/14 07:50:58;;;;;;;74.47;33.00;;;;;;;;;;5002840;28;20037;-57
2023/12/14 07:53:24;;;;;;;83.18;34.70;;;;;;;;;;5000917;28;20030;-56
2023/12/14 07:55:50;;;;;;;84.93;35.45;;;;;;;;;;5001967;28;20046;-56
2023/12/14 07:58:16;;;;;;;79.63;33.28;;;;;;;;;;4999327;28;20041;-58
2023/12/14 08:00:42;;;;;;;90.40;37.33;;;;;;;;;;5003009;28;20046;-59
2023/12/14 08:03:08;;;;;;;86.75;34.22;;;;;;;;;;5001883;28;20045;-58
2023/12/14 08:05:34;;;;;;;87.35;33.97;;;;;;;;;;5000579;28;20596;-58
2023/12/14 08:08:00;;;;;;;83.22;35.55;;;;;;;;;;5002746;28;20042;-58
2023/12/14 08:10:26;;;;;;;79.38;33.78;;;;;;;;;;5004806;28;20036;-59
2023/12/14 08:12:52;;;;;;;77.78;33.90;;;;;;;;;;4986739;28;20062;-57
2023/12/14 08:15:18;;;;;;;80.13;33.60;;;;;;;;;;4989225;28;20060;-58
2023/12/14 08:17:44;;;;;;;71.32;31.02;;;;;;;;;;5003644;28;20065;-58
2023/12/14 08:20:11;;;;;;;70.28;29.35;;;;;;;;;;5000778;28;20564;-58
2023/12/14 08:22:37;;;;;;;68.45;30.17;;;;;;;;;;5001719;28;20869;-58
2023/12/14 08:25:03;;;;;;;65.75;30.20;;;;;;;;;;4999995;28;20046;-58
2023/12/14 08:27:29;;;;;;;63.38;27.65;;;;;;;;;;4998496;28;20078;-58
2023/12/14 08:29:55;;;;;;;65.47;28.83;;;;;;;;;;5000035;28;20068;-58
2023/12/14 08:32:21;;;;;;;66.15;29.30;;;;;;;;;;5000296;28;20208;-57
2023/12/14 08:34:47;;;;;;;61.95;30.15;;;;;;;;;;5003107;28;20396;-58
2023/12/14 08:37:13;;;;;;;60.17;28.70;;;;;;;;;;4999755;28;20446;-58
2023/12/14 08:39:39;;;;;;;59.22;27.65;;;;;;;;;;5003513;28;20343;-58
2023/12/14 08:42:05;;;;;;;62.88;29.08;;;;;;;;;;5001376;28;20160;-57
2023/12/14 08:44:31;;;;;;;61.05;27.55;;;;;;;;;;5002359;28;20045;-56
2023/12/14 08:46:57;;;;;;;66.55;29.67;;;;;;;;;;5003915;28;20100;-56
2023/12/14 08:49:23;;;;;;;59.97;28.67;;;;;;;;;;4998193;28;20192;-55
2023/12/14 08:51:49;;;;;;;62.30;29.33;;;;;;;;;;5000823;28;20038;-55
2023/12/14 08:54:15;;;;;;;61.63;28.58;;;;;;;;;;4998090;28;20038;-55
2023/12/14 08:56:41;;;;;;;64.90;28.73;;;;;;;;;;5002853;28;20509;-56
2023/12/14 08:59:07;;;;;;;62.22;27.88;;;;;;;;;;4998780;28;20099;-57
2023/12/14 09:01:33;;;;;;;60.70;28.70;;;;;;;;;;4984998;28;20429;-57
2023/12/14 09:04:00;;;;;;;61.90;28.60;;;;;;;;;;5000476;28;20122;-56
2023/12/14 09:06:26;;;;;;;57.00;27.35;;;;;;;;;;4999218;28;20048;-56
2023/12/14 09:08:52;;;;;;;63.22;28.00;;;;;;;;;;4999814;28;20041;-56
2023/12/14 09:11:18;;;;;;;64.07;29.10;;;;;;;;;;4995186;28;20030;-56
2023/12/14 09:13:43;;;;;;;60.80;28.23;;;;;;;;;;4985168;28;20050;-56
2023/12/14 09:16:10;;;;;;;59.58;28.67;;;;;;;;;;4996399;28;20045;-55
2023/12/14 09:18:36;;;;;;;58.08;27.38;;;;;;;;;;4999964;28;20045;-56
2023/12/14 09:21:03;;;;;;;56.85;28.10;;;;;;;;;;5002051;28;20141;-55
2023/12/14 09:23:28;;;;;;;58.53;28.13;;;6.00;99.90;;;;;;4999716;28;20561;-57
2023/12/14 09:25:55;;;;;;;57.25;27.42;;;5.90;99.90;;;;;;4996897;28;20121;-57
2023/12/14 09:28:21;;;;;;;59.13;29.05;;;6.00;99.90;;;;;;4996674;28;20500;-58
2023/12/14 09:30:47;;;;;;;57.63;28.63;;;6.20;99.90;;;;;;4998622;28;20312;-57
2023/12/14 09:33:13;;;;;;;56.63;26.77;;;6.40;99.90;;;;;;4996582;28;20034;-57
2023/12/14 09:35:38;;;;;;;55.42;27.17;;;6.20;99.90;;;;;;4998060;28;20034;-57
2023/12/14 09:38:06;;;;;;;58.47;27.65;;;6.00;99.90;;;;;;4998027;28;20061;-58
2023/12/14 09:40:31;;;;;;;54.97;25.80;;;6.00;99.90;;;;;;5002492;28;20579;-57
2023/12/14 09:42:57;;;;;;;51.35;23.48;;;6.10;99.90;;;;;;4989187;28;20038;-58
2023/12/14 09:45:28;;;;;;;39.30;20.10;;;6.00;99.90;;;;;;4991381;28;20399;-58
2023/12/14 09:47:55;;;;;;;45.88;22.95;;;5.90;99.90;;;;;;4995662;28;20045;-57
2023/12/14 09:50:23;;;;;;;48.03;24.00;;;5.80;99.90;;;;;;4993401;28;20049;-58
2023/12/14 09:52:49;;;;;;;45.72;23.67;;;6.00;99.90;;;;;;4999517;28;20545;-55
2023/12/14 09:55:15;;;;;;;45.55;23.85;;;5.80;99.90;;;;;;4998573;28;20088;-55
2023/12/14 09:57:41;;;;;;;45.47;23.20;;;6.00;99.90;;;;;;5000834;28;20045;-56
2023/12/14 10:00:10;;;;;;;46.95;24.48;;;6.10;99.90;;;;;;4983900;28;20048;-56
2023/12/14 10:02:36;;;;;;;42.50;23.35;;;6.10;99.90;;;;;;4996432;28;20353;-56
2023/12/14 10:05:02;;;;;;;40.72;23.00;;;6.00;99.90;;;;;;4999027;28;20332;-57
2023/12/14 10:07:27;;;;;;;42.35;22.63;;;6.10;99.90;;;;;;4994878;28;20048;-55
2023/12/14 10:09:53;;;;;;;38.83;21.65;;;6.20;99.90;;;;;;5001906;28;20037;-55
2023/12/14 10:12:21;;;;;;;36.15;19.63;;;6.20;99.90;;;;;;5003598;28;20038;-56
2023/12/14 10:14:59;;;;;;;36.33;20.45;;;6.00;99.90;;;;;;5002189;28;20042;-56
2023/12/14 10:17:31;;;;;;;36.72;20.80;;;6.10;99.90;;;;;;5000119;28;20038;-56
2023/12/14 10:19:57;;;;;;;37.78;21.42;;;6.10;99.90;;;;;;5000485;28;20608;-56
2023/12/14 10:22:28;;;;;;;36.85;20.85;;;6.00;99.90;;;;;;4988089;28;20119;-57
2023/12/14 10:24:53;;;;;;;38.50;20.48;;;6.00;99.90;;;;;;5009234;28;20218;-56
2023/12/14 10:27:20;;;;;;;38.40;21.58;;;6.00;99.90;;;;;;5004822;28;20069;-57
2023/12/14 10:29:46;;;;;;;43.30;22.60;;;6.00;99.90;;;;;;4999120;28;20556;-56
2023/12/14 10:32:12;;;;;;;41.08;23.05;;;5.90;99.90;;;;;;4993858;28;20111;-57
2023/12/14 10:34:38;;;;;;;42.80;22.70;;;5.90;99.90;;;;;;4997162;28;20046;-57
2023/12/14 10:37:05;;;;;;;38.58;21.40;;;6.00;99.90;;;;;;4999163;28;20048;-57
2023/12/14 10:39:33;;;;;;;34.75;17.67;;;6.00;99.90;;;;;;4996697;28;20038;-59
2023/12/14 10:42:02;;;;;;;64.28;29.80;;;5.80;99.90;;;;;;5004939;28;20050;-57
2023/12/14 10:44:30;;;;;;;136.20;51.72;;;;;;;;;;5002119;28;20551;-59
2023/12/14 10:46:58;;;;;;;57.17;26.65;;;;;;;;;;4994958;28;20042;-58
2023/12/14 10:49:27;;;;;;;39.92;21.23;;;;;;;;;;5001767;28;20046;-58
2023/12/14 10:51:54;;;;;;;38.80;21.60;;;;;;;;;;4999644;28;20033;-58
2023/12/14 10:54:20;;;;;;;37.45;17.73;;;;;;;;;;4997096;28;20044;-58
2023/12/14 10:56:46;;;;;;;32.80;17.98;;;;;;;;;;4999314;28;20223;-59
2023/12/14 10:59:16;;;;;;;31.17;16.73;;;5.70;99.90;;;;;;4998530;28;20033;-57
2023/12/14 11:01:42;;;;;;;9.30;4.38;;;5.60;99.90;;;;;;4992118;28;20042;-55
2023/12/14 11:04:13;;;;;;;1.35;0.68;;;5.50;99.90;;;;;;4996663;28;20406;-56
2023/12/14 11:06:39;;;;;;;31.13;16.45;;;5.60;99.90;;;;;;4983028;28;20085;-56
2023/12/14 11:09:07;;;;;;;33.58;15.77;;;5.60;99.90;;;;;;4996091;28;20505;-55
2023/12/14 11:11:48;;;;;;;33.38;15.73;;;5.60;99.90;;;;;;4998411;28;20042;-56
2023/12/14 11:14:13;;;;;;;29.88;15.38;;;5.70;99.90;;;;;;4992624;28;20108;-56
2023/12/14 11:16:46;;;;;;;30.38;14.88;;;5.70;99.90;;;;;;4998718;28;20038;-57
2023/12/14 11:19:24;;;;;;;29.90;14.07;;;5.60;99.90;;;;;;4990170;28;20172;-56
2023/12/14 11:22:04;;;;;;;28.85;14.75;;;5.70;99.90;;;;;;4997564;28;20277;-57
2023/12/14 11:24:30;;;;;;;30.00;15.10;;;5.80;99.90;;;;;;4997147;28;20386;-56
2023/12/14 11:26:56;;;;;;;28.58;12.52;;;5.90;99.90;;;;;;4995551;28;20116;-55
2023/12/14 11:29:22;;;;;;;0.00;0.00;;;6.00;99.90;;;;;;4996331;28;20386;-54
2023/12/14 11:31:48;;;;;;;23.38;10.25;;;6.00;99.90;;;;;;4995053;28;20069;-57
2023/12/14 11:34:16;;;;;;;29.83;15.52;;;5.90;99.90;;;;;;4997142;28;20042;-54
2023/12/14 11:36:42;;;;;;;29.02;14.27;;;6.00;99.90;;;;;;5002725;28;20600;-56
2023/12/14 11:39:09;;;;;;;30.35;14.82;;;5.90;99.90;;;;;;5002457;28;20044;-55
2023/12/14 11:41:36;;;;;;;27.83;13.27;;;5.90;99.90;;;;;;4998855;28;20041;-55
2023/12/14 11:44:02;;;;;;;27.45;13.45;;;5.90;99.90;;;;;;4999562;28;20038;-55
2023/12/14 11:46:29;;;;;;;25.85;12.70;;;5.90;99.90;;;;;;5002352;28;20052;-56
2023/12/14 11:48:56;;;;;;;25.80;12.48;;;6.00;99.90;;;;;;5003871;28;20042;-55
2023/12/14 11:51:22;;;;;;;31.30;12.18;;;6.10;99.90;;;;;;4993844;28;20038;-56
2023/12/14 11:53:48;;;;;;;20.08;11.18;;;6.00;99.90;;;;;;4995406;28;20751;-58
2023/12/14 11:56:18;;;;;;;23.08;11.10;;;5.90;99.90;;;;;;5001195;28;20042;-57
2023/12/14 11:58:48;;;;;;;22.02;11.15;;;5.90;99.90;;;;;;4998242;28;20517;-59
2023/12/14 12:01:19;;;;;;;21.60;10.57;;;5.80;99.90;;;;;;4994938;28;20033;-57
2023/12/14 12:03:46;;;;;;;17.95;10.35;;;5.60;99.90;;;;;;4988899;28;20038;-55
2023/12/14 12:06:30;;;;;;;18.27;10.35;;;5.70;99.90;;;;;;4997136;28;20048;-55
2023/12/14 12:08:56;;;;;;;22.27;11.15;;;5.80;99.90;;;;;;4997000;28;20578;-56
2023/12/14 12:11:23;;;;;;;22.63;11.15;;;5.90;99.90;;;;;;4994199;28;20038;-57
2023/12/14 12:13:53;;;;;;;21.23;11.57;;;6.00;99.90;;;;;;4996857;28;20030;-55
2023/12/14 12:16:19;;;;;;;21.73;10.48;;;5.90;99.90;;;;;;4995874;28;20053;-55
2023/12/14 12:18:44;;;;;;;21.17;10.55;;;5.90;99.90;;;;;;4996427;28;20042;-55
2023/12/14 12:21:12;;;;;;;19.10;11.05;;;5.90;99.90;;;;;;4999143;28;20033;-55
2023/12/14 12:23:37;;;;;;;17.75;9.65;;;5.90;99.90;;;;;;4996709;28;20393;-57
2023/12/14 12:26:03;;;;;;;19.05;10.85;;;5.90;99.90;;;;;;4996039;28;20037;-56
2023/12/14 12:28:30;;;;;;;21.50;11.50;;;5.90;99.90;;;;;;4995742;28;21470;-55
2023/12/14 12:30:56;;;;;;;19.33;10.07;;;6.10;99.90;;;;;;4996738;28;20132;-54
2023/12/14 12:33:21;;;;;;;16.92;9.82;;;6.10;99.90;;;;;;4996728;28;20067;-55
2023/12/14 12:35:47;;;;;;;17.50;9.80;;;6.00;99.90;;;;;;4999439;28;20550;-57
2023/12/14 12:38:14;;;;;;;21.65;10.15;;;6.20;99.90;;;;;;4998291;28;20115;-56
2023/12/14 12:40:39;;;;;;;18.63;10.20;;;6.20;99.90;;;;;;5000509;28;20034;-56
2023/12/14 12:43:05;;;;;;;18.23;9.77;;;5.80;99.90;;;;;;4989554;28;20076;-55
2023/12/14 12:45:32;;;;;;;20.73;9.70;;;6.20;99.90;;;;;;4993947;28;20065;-56
2023/12/14 12:47:57;;;;;;;21.35;9.70;;;6.10;99.90;;;;;;4991505;28;20119;-56
2023/12/14 12:50:23;;;;;;;18.45;10.25;;;6.10;99.90;;;;;;4973641;28;20038;-56
2023/12/14 12:52:49;;;;;;;17.40;10.02;;;6.00;99.90;;;;;;4996416;28;20038;-55
2023/12/14 12:55:15;;;;;;;19.35;9.10;;;6.20;99.90;;;;;;4993131;28;20033;-57
2023/12/14 12:57:43;;;;;;;20.08;9.50;;;6.40;99.90;;;;;;4997636;28;20092;-56
2023/12/14 13:00:12;;;;;;;16.10;8.80;;;6.30;99.90;;;;;;4993489;28;20166;-56
2023/12/14 13:02:40;;;;;;;18.33;9.05;;;6.40;99.90;;;;;;4990568;28;20045;-56
2023/12/14 13:05:09;;;;;;;13.32;7.85;;;6.10;99.90;;;;;;4996472;28;20038;-55
2023/12/14 13:07:36;;;;;;;15.00;8.50;;;;;;;;;;4996850;28;20040;-55
2023/12/14 13:10:03;;;;;;;16.98;8.65;;;5.60;99.90;;;;;;4996679;28;20073;-56
2023/12/14 13:12:29;;;;;;;18.80;8.65;;;6.10;99.90;;;;;;4994457;28;20049;-56
2023/12/14 13:14:55;;;;;;;15.93;8.70;;;6.10;99.90;;;;;;4992972;28;20176;-56
2023/12/14 13:17:20;;;;;;;17.05;8.93;;;5.70;99.90;;;;;;4996503;28;20291;-55
2023/12/14 13:19:46;;;;;;;16.88;8.88;;;6.10;99.90;;;;;;4996170;28;20038;-56
2023/12/14 13:22:12;;;;;;;15.48;8.93;;;6.10;99.90;;;;;;4993023;28;20505;-56
2023/12/14 13:24:38;;;;;;;16.70;9.18;;;6.00;99.90;;;;;;4993103;28;20053;-56
2023/12/14 13:27:07;;;;;;;26.92;12.48;;;;;;;;;;4996701;28;20042;-56
2023/12/14 13:29:34;;;;;;;33.97;15.68;;;5.80;99.90;;;;;;4995015;28;20433;-56